Port Phillip Bay, Australia
Current Conditions -  °F | °C
As of 3:00 AM on Friday 28 Nov 2014 (Local Time) from YMAV Reporting Station
Broken Clouds Broken Clouds  
Wind Chill: 54°   Ceiling: 2300
Heat Index: 54°   Visibility: 6mi
Dew Point: 46°   Wind: 9mph
Humidity: 77%   Direction: 140°SE
Pressure: 30.18"   Gusts: NA
Location:  38.07°S, 144.85°E
Report Text: YMAV 271600Z AUTO 14008KT 9999 // BKN023 12/08 Q1022
Loading
Personal Weather Stations






























Interactive Weather Map New forecast layout! Learn more

10-Day Weather Forecast

Advertisements
Track Severe Weather on mobile